Terminal Aerodrome Forecast
Issued by NWS Duluth, MN

Home | Current Version | Previous Version | Text Only | Print | Product List | Glossary On
Versions: 1 2 3 4 5 6 7 8 9 10 11 12 13 14 15 16 17 18 19 20 21 22 23 24
000
FTUS43 KDLH 281608 AAA
TAFINL
TAF AMD
KINL 281608Z 2816/2912 14011KT P6SM -RA SCT015 BKN025 OVC110
     FM281800 18012G20KT P6SM SCT020 BKN035 BKN110
     FM282000 20014G24KT P6SM VCSH SCT030
      TEMPO 2820/2822 -TSRA SCT025 BKN035CB
     FM282300 21014G24KT P6SM FEW050
     FM290900 23012G20KT P6SM OVC050=

USA.gov is the U.S. government's official web portal to all federal, state and local government web resources and services.